createdAt,value
2017-11-20T00:00:13.037Z,48.50
2017-11-20T00:02:41.108Z,47.80
2017-11-20T00:05:09.400Z,47.70
2017-11-20T00:07:37.485Z,48.60
2017-11-20T00:10:05.539Z,48.40
2017-11-20T00:12:33.618Z,47.70
2017-11-20T00:15:01.676Z,47.60
2017-11-20T00:17:29.744Z,47.40
2017-11-20T00:19:57.796Z,47.70
2017-11-20T00:22:26.626Z,46.80
2017-11-20T00:24:54.709Z,46.70
2017-11-20T00:27:22.773Z,47.30
2017-11-20T00:29:50.837Z,47.00
2017-11-20T00:32:18.917Z,46.40
2017-11-20T00:34:46.994Z,46.60
2017-11-20T00:37:15.058Z,45.90
2017-11-20T00:39:43.127Z,46.70
2017-11-20T00:42:11.196Z,46.20
2017-11-20T00:44:39.263Z,47.00
2017-11-20T00:47:07.332Z,46.30
2017-11-20T00:49:35.412Z,47.00
2017-11-20T00:52:03.484Z,47.00
2017-11-20T00:54:31.547Z,47.00
2017-11-20T00:56:59.617Z,47.00
2017-11-20T00:59:27.688Z,46.30
2017-11-20T01:01:55.763Z,46.80
2017-11-20T01:04:23.852Z,46.90
2017-11-20T01:06:51.908Z,47.60
2017-11-20T01:09:19.998Z,47.70
2017-11-20T01:11:48.044Z,47.80
2017-11-20T01:14:16.124Z,47.80
2017-11-20T01:16:44.184Z,47.90
2017-11-20T01:19:12.255Z,48.00
2017-11-20T01:21:40.323Z,48.20
2017-11-20T01:24:08.408Z,48.20
2017-11-20T01:26:36.467Z,49.00
2017-11-20T01:29:04.532Z,48.80
2017-11-20T01:31:33.364Z,49.10
2017-11-20T01:34:01.429Z,49.00
2017-11-20T01:36:29.484Z,49.20
2017-11-20T01:38:57.556Z,49.20
2017-11-20T01:41:25.621Z,49.10
2017-11-20T01:43:53.692Z,49.40
2017-11-20T01:46:22.520Z,49.70
2017-11-20T01:48:50.592Z,49.70
2017-11-20T01:51:18.652Z,49.90
2017-11-20T01:53:46.738Z,50.00
2017-11-20T01:56:14.791Z,50.10
2017-11-20T01:58:42.872Z,50.00
2017-11-20T02:01:10.946Z,49.80
2017-11-20T02:03:38.993Z,49.60
2017-11-20T02:06:07.065Z,49.60
2017-11-20T02:08:35.136Z,49.50
2017-11-20T02:11:03.201Z,49.70
2017-11-20T02:13:32.030Z,49.50
2017-11-20T02:16:00.098Z,49.40
2017-11-20T02:18:28.168Z,49.50
2017-11-20T02:20:56.280Z,49.90
2017-11-20T02:23:24.339Z,50.20
2017-11-20T02:25:53.200Z,50.00
2017-11-20T02:28:21.252Z,50.00
2017-11-20T02:30:49.320Z,50.00
2017-11-20T02:33:17.388Z,50.10
2017-11-20T02:35:45.451Z,49.90
2017-11-20T02:38:13.520Z,50.10
2017-11-20T02:40:42.344Z,49.90
2017-11-20T02:43:10.436Z,49.90
2017-11-20T02:45:38.524Z,49.90
2017-11-20T02:48:06.583Z,49.80
2017-11-20T02:50:34.648Z,49.70
2017-11-20T02:53:02.705Z,49.70
2017-11-20T02:55:30.778Z,49.60
2017-11-20T02:57:58.836Z,49.70
2017-11-20T03:00:26.905Z,50.40
2017-11-20T03:02:54.955Z,49.90
2017-11-20T03:05:23.795Z,49.60
2017-11-20T03:07:51.872Z,49.60
2017-11-20T03:10:20.710Z,49.00
2017-11-20T03:12:49.540Z,49.30
2017-11-20T03:15:17.625Z,49.40
2017-11-20T03:17:45.692Z,49.10
2017-11-20T03:20:13.752Z,49.10
2017-11-20T03:22:41.820Z,49.30
2017-11-20T03:25:09.875Z,49.30
2017-11-20T03:27:37.949Z,49.40
2017-11-20T03:30:06.013Z,49.40
2017-11-20T03:32:34.874Z,49.50
2017-11-20T03:35:02.925Z,49.40
2017-11-20T03:37:31.752Z,49.30
2017-11-20T03:40:00.597Z,49.80
2017-11-20T03:42:28.651Z,49.50
2017-11-20T03:44:56.723Z,49.20
2017-11-20T03:47:24.780Z,49.10
2017-11-20T03:49:52.849Z,49.20
2017-11-20T03:52:20.917Z,48.80
2017-11-20T03:54:49.003Z,48.70
2017-11-20T03:57:17.085Z,48.90
2017-11-20T03:59:45.155Z,48.70
2017-11-20T04:02:13.217Z,48.70
2017-11-20T04:04:41.288Z,48.40
2017-11-20T04:07:09.357Z,48.60
2017-11-20T04:09:37.424Z,48.60
2017-11-20T04:12:05.589Z,48.50
2017-11-20T04:14:33.669Z,48.80
2017-11-20T04:17:01.726Z,48.30
2017-11-20T04:19:30.557Z,48.50
2017-11-20T04:21:58.624Z,48.30
2017-11-20T04:24:26.696Z,48.10
2017-11-20T04:26:54.752Z,48.00
2017-11-20T04:29:22.824Z,48.20
2017-11-20T04:31:50.898Z,47.70
2017-11-20T04:34:18.948Z,47.80
2017-11-20T04:36:47.019Z,48.20
2017-11-20T04:39:15.092Z,48.00
2017-11-20T04:41:43.167Z,48.00
2017-11-20T04:44:11.234Z,47.20
2017-11-20T04:46:39.313Z,47.30
2017-11-20T04:49:08.140Z,47.80
2017-11-20T04:51:36.217Z,47.80
2017-11-20T04:54:04.292Z,47.60
2017-11-20T04:56:32.356Z,47.50
2017-11-20T04:59:00.434Z,47.90
2017-11-20T05:01:28.504Z,47.50
2017-11-20T05:03:56.582Z,47.40
2017-11-20T05:06:24.641Z,47.60
2017-11-20T05:08:52.716Z,47.00
2017-11-20T05:11:20.783Z,47.00
2017-11-20T05:13:48.861Z,47.30
2017-11-20T05:16:16.928Z,47.50
2017-11-20T05:18:44.996Z,47.10
2017-11-20T05:21:13.057Z,46.90
2017-11-20T05:23:41.127Z,47.40
2017-11-20T05:26:09.212Z,47.60
2017-11-20T05:28:37.284Z,47.10
2017-11-20T05:31:05.344Z,46.80
2017-11-20T05:33:33.417Z,47.10
2017-11-20T05:36:01.492Z,46.50
2017-11-20T05:38:29.561Z,46.70
2017-11-20T05:40:57.620Z,46.60
2017-11-20T05:43:25.685Z,46.60
2017-11-20T05:45:53.754Z,46.90
2017-11-20T05:48:21.829Z,46.70
2017-11-20T05:50:49.885Z,46.50
2017-11-20T05:53:17.993Z,46.90
2017-11-20T05:55:46.065Z,46.90
2017-11-20T05:58:14.139Z,46.60
2017-11-20T06:00:42.207Z,45.90
2017-11-20T06:03:10.289Z,46.30
2017-11-20T06:05:38.374Z,45.90
2017-11-20T06:08:06.440Z,45.90
2017-11-20T06:10:34.531Z,45.90
2017-11-20T06:13:02.649Z,46.00
2017-11-20T06:15:30.724Z,46.80
2017-11-20T06:17:58.794Z,46.30
2017-11-20T06:20:26.868Z,46.90
2017-11-20T06:22:55.700Z,46.40
2017-11-20T06:25:23.802Z,46.40
2017-11-20T06:27:52.632Z,46.90
2017-11-20T06:30:20.697Z,46.90
2017-11-20T06:32:49.537Z,46.90
2017-11-20T06:35:17.604Z,46.90
2017-11-20T06:37:45.707Z,45.90
2017-11-20T06:40:14.557Z,46.20
2017-11-20T06:42:42.628Z,46.10
2017-11-20T06:45:10.701Z,46.40
2017-11-20T06:47:38.777Z,45.90
2017-11-20T06:50:06.846Z,46.50
2017-11-20T06:52:34.912Z,46.40
2017-11-20T06:55:03.009Z,46.80
2017-11-20T06:57:31.072Z,45.90
2017-11-20T06:59:59.173Z,45.90
2017-11-20T07:02:28.005Z,45.90
2017-11-20T07:04:56.097Z,45.90
2017-11-20T07:07:24.176Z,46.80
2017-11-20T07:09:52.266Z,45.90
2017-11-20T07:12:21.098Z,45.90
2017-11-20T07:14:49.177Z,45.80
2017-11-20T07:17:17.242Z,45.90
2017-11-20T07:19:45.325Z,45.90
2017-11-20T07:22:13.400Z,45.80
2017-11-20T07:24:41.497Z,45.90
2017-11-20T07:30:38.597Z,44.90
2017-11-20T07:33:07.428Z,46.00
2017-11-20T07:35:41.069Z,45.80
2017-11-20T07:38:17.950Z,45.20
2017-11-20T07:41:03.844Z,43.50
2017-11-20T07:43:32.714Z,42.50
2017-11-20T07:46:00.788Z,42.40
2017-11-20T07:48:28.854Z,43.90
2017-11-20T07:50:57.102Z,42.10
2017-11-20T07:53:25.196Z,41.70
2017-11-20T07:55:53.279Z,41.50
2017-11-20T07:58:21.351Z,42.20
2017-11-20T08:00:49.412Z,41.90
2017-11-20T08:03:17.511Z,41.40
2017-11-20T08:05:45.567Z,42.20
2017-11-20T08:08:13.637Z,43.00
2017-11-20T08:10:41.833Z,42.90
2017-11-20T08:13:09.904Z,41.90
2017-11-20T08:15:37.974Z,42.20
2017-11-20T08:18:06.052Z,42.20
2017-11-20T08:20:34.108Z,42.30
2017-11-20T08:23:02.190Z,43.10
2017-11-20T08:25:30.252Z,43.00
2017-11-20T08:27:58.332Z,43.00
2017-11-20T08:30:26.404Z,42.30
2017-11-20T08:32:54.469Z,41.70
2017-11-20T08:35:22.541Z,41.80
2017-11-20T08:37:50.612Z,43.10
2017-11-20T08:40:18.913Z,41.20
2017-11-20T08:42:46.968Z,41.90
2017-11-20T08:45:15.045Z,41.70
2017-11-20T08:47:43.108Z,42.10
2017-11-20T08:50:11.180Z,42.30
2017-11-20T08:52:39.248Z,42.30
2017-11-20T08:55:07.316Z,41.70
2017-11-20T08:57:35.380Z,41.20
2017-11-20T09:00:03.464Z,39.90
2017-11-20T09:02:31.535Z,40.70
2017-11-20T09:05:00.433Z,40.50
2017-11-20T09:07:28.504Z,40.60
2017-11-20T09:09:56.560Z,40.50
2017-11-20T09:12:24.632Z,41.10
2017-11-20T09:14:52.695Z,39.90
2017-11-20T09:17:20.982Z,39.30
2017-11-20T09:19:49.213Z,39.50
2017-11-20T09:22:17.284Z,39.30
2017-11-20T09:24:45.344Z,39.10
2017-11-20T09:27:14.185Z,39.70
2017-11-20T09:29:43.078Z,39.60
2017-11-20T09:32:11.165Z,40.00
2017-11-20T09:34:39.240Z,38.60
2017-11-20T09:37:07.298Z,38.80
2017-11-20T09:39:35.364Z,39.90
2017-11-20T09:42:03.429Z,38.70
2017-11-20T09:44:31.497Z,38.60
2017-11-20T09:46:59.559Z,37.80
2017-11-20T09:49:27.694Z,37.80
2017-11-20T09:51:56.524Z,37.40
2017-11-20T09:54:24.597Z,37.40
2017-11-20T09:56:55.162Z,37.50
2017-11-20T09:59:23.233Z,36.50
2017-11-20T10:01:51.296Z,36.60
2017-11-20T10:04:19.367Z,35.40
2017-11-20T10:06:47.432Z,35.40
2017-11-20T10:09:15.521Z,35.90
2017-11-20T10:11:44.486Z,36.10
2017-11-20T10:14:12.669Z,36.20
2017-11-20T10:16:40.745Z,35.30
2017-11-20T10:19:08.876Z,35.60
2017-11-20T10:21:37.708Z,35.70
2017-11-20T10:24:05.841Z,35.70
2017-11-20T10:26:33.936Z,35.00
2017-11-20T10:29:02.021Z,34.90
2017-11-20T10:31:30.168Z,34.90
2017-11-20T10:33:58.224Z,34.00
2017-11-20T10:36:27.066Z,34.70
2017-11-20T10:38:55.137Z,34.70
2017-11-20T10:41:23.205Z,35.20
2017-11-20T10:43:51.263Z,34.40
2017-11-20T10:46:19.945Z,34.80
2017-11-20T10:48:48.010Z,34.70
2017-11-20T10:51:16.087Z,34.50
2017-11-20T10:53:44.172Z,34.90
2017-11-20T10:56:12.245Z,34.50
2017-11-20T10:58:40.316Z,35.50
2017-11-20T11:01:08.408Z,32.90
2017-11-20T11:03:36.477Z,32.20
2017-11-20T11:06:04.562Z,30.90
2017-11-20T11:08:33.359Z,31.10
2017-11-20T11:11:01.456Z,30.60
2017-11-20T11:13:30.292Z,33.00
2017-11-20T11:15:58.369Z,32.90
2017-11-20T11:18:26.441Z,33.60
2017-11-20T11:20:54.544Z,33.10
2017-11-20T11:23:23.399Z,34.20
2017-11-20T11:25:51.453Z,34.20
2017-11-20T11:28:20.309Z,36.10
2017-11-20T11:30:49.147Z,37.10
2017-11-20T11:33:17.226Z,37.00
2017-11-20T11:35:45.328Z,37.90
2017-11-20T11:38:13.406Z,37.40
2017-11-20T11:40:42.252Z,37.50
2017-11-20T11:43:11.096Z,38.30
2017-11-20T11:45:39.933Z,40.40
2017-11-20T11:48:08.781Z,39.80
2017-11-20T11:50:37.637Z,39.40
2017-11-20T11:53:05.712Z,39.40
2017-11-20T11:55:33.780Z,40.70
2017-11-20T11:58:01.860Z,40.30
2017-11-20T12:00:29.929Z,40.10
2017-11-20T12:02:58.024Z,40.50
2017-11-20T12:05:27.005Z,40.40
2017-11-20T12:07:55.064Z,40.20
2017-11-20T12:10:23.140Z,41.40
2017-11-20T12:12:51.203Z,41.10
2017-11-20T12:15:19.292Z,41.50
2017-11-20T12:17:47.360Z,43.00
2017-11-20T12:20:15.444Z,42.40
2017-11-20T12:22:43.511Z,43.90
2017-11-20T12:25:11.582Z,41.90
2017-11-20T12:27:39.647Z,40.70
2017-11-20T12:30:07.718Z,40.80
2017-11-20T12:32:35.826Z,40.70
2017-11-20T12:35:04.661Z,41.00
2017-11-20T12:37:32.733Z,40.90
2017-11-20T12:40:00.804Z,41.20
2017-11-20T12:42:28.875Z,41.30
2017-11-20T12:44:56.977Z,41.80
2017-11-20T12:47:25.049Z,41.80
2017-11-20T12:49:53.155Z,41.20
2017-11-20T12:52:21.224Z,42.10
2017-11-20T12:54:49.291Z,41.60
2017-11-20T12:57:18.144Z,41.50
2017-11-20T12:59:46.204Z,41.50
2017-11-20T13:02:14.294Z,41.60
2017-11-20T13:04:42.380Z,41.50
2017-11-20T13:07:11.212Z,43.20
2017-11-20T13:09:39.285Z,42.40
2017-11-20T13:12:07.355Z,42.40
2017-11-20T13:14:35.429Z,43.00
2017-11-20T13:17:03.498Z,42.70
2017-11-20T13:19:31.612Z,42.90
2017-11-20T13:21:59.695Z,44.00
2017-11-20T13:24:27.768Z,43.70
2017-11-20T13:26:55.848Z,43.50
2017-11-20T13:29:23.917Z,44.50
2017-11-20T13:31:52.030Z,43.70
2017-11-20T13:34:20.099Z,43.30
2017-11-20T13:36:48.177Z,43.80
2017-11-20T13:39:16.305Z,44.00
2017-11-20T13:41:44.360Z,43.40
2017-11-20T13:44:12.437Z,44.30
2017-11-20T13:46:40.493Z,46.10
2017-11-20T13:49:08.564Z,44.90
2017-11-20T13:51:36.656Z,45.70
2017-11-20T13:54:05.216Z,47.10
2017-11-20T13:56:33.301Z,45.90
2017-11-20T13:59:01.374Z,45.90
2017-11-20T14:01:29.435Z,46.70
2017-11-20T14:03:57.537Z,47.10
2017-11-20T14:06:32.112Z,48.10
2017-11-20T14:09:03.131Z,48.20
2017-11-20T14:11:31.965Z,49.50
2017-11-20T14:14:00.060Z,49.40
2017-11-20T14:16:28.120Z,49.80
2017-11-20T14:18:56.185Z,48.20
2017-11-20T14:21:24.268Z,49.80
2017-11-20T14:23:52.328Z,48.90
2017-11-20T14:26:20.408Z,50.10
2017-11-20T14:28:48.472Z,50.00
2017-11-20T14:31:16.584Z,50.40
2017-11-20T14:33:45.412Z,50.20
2017-11-20T14:36:13.485Z,50.20
2017-11-20T14:38:42.240Z,51.40
2017-11-20T14:41:11.076Z,49.20
2017-11-20T14:43:39.376Z,49.20
2017-11-20T14:46:07.450Z,49.00
2017-11-20T14:48:41.400Z,51.10
2017-11-20T14:51:44.636Z,50.30
2017-11-20T14:54:17.256Z,51.80
2017-11-20T14:56:46.097Z,51.30
2017-11-20T14:59:15.753Z,50.90
2017-11-20T15:01:55.992Z,52.20
2017-11-20T15:04:24.065Z,52.20
2017-11-20T15:06:52.136Z,51.10
2017-11-20T15:09:20.204Z,51.20
2017-11-20T15:11:48.276Z,52.60
2017-11-20T15:14:16.348Z,52.90
2017-11-20T15:16:44.437Z,54.00
2017-11-20T15:19:12.505Z,55.00
2017-11-20T15:21:40.571Z,55.90
2017-11-20T15:24:08.663Z,54.00
2017-11-20T15:26:37.488Z,53.90
2017-11-20T15:29:05.561Z,53.80
2017-11-20T15:31:34.329Z,56.10
2017-11-20T15:34:03.163Z,56.60
2017-11-20T15:36:31.373Z,56.30
2017-11-20T15:39:00.219Z,55.60
2017-11-20T15:41:28.282Z,55.60
2017-11-20T15:43:56.363Z,56.80
2017-11-20T15:46:24.435Z,56.00
2017-11-20T15:48:52.529Z,57.90
2017-11-20T15:51:20.593Z,57.30
2017-11-20T15:53:48.658Z,57.70
2017-11-20T15:56:16.732Z,56.30
2017-11-20T15:58:44.805Z,58.40
2017-11-20T16:01:12.881Z,56.50
2017-11-20T16:03:40.952Z,57.40
2017-11-20T16:06:09.021Z,57.40
2017-11-20T16:08:37.094Z,57.60
2017-11-20T16:11:05.163Z,57.40
2017-11-20T16:13:33.235Z,58.80
2017-11-20T16:16:01.307Z,58.90
2017-11-20T16:18:29.428Z,59.30
2017-11-20T16:20:57.481Z,57.30
2017-11-20T16:23:25.552Z,59.60
2017-11-20T16:25:53.656Z,58.10
2017-11-20T16:28:22.490Z,58.60
2017-11-20T16:30:50.576Z,58.50
2017-11-20T16:33:18.635Z,57.30
2017-11-20T16:35:46.701Z,57.10
2017-11-20T16:38:14.775Z,56.70
2017-11-20T16:40:42.847Z,56.50
2017-11-20T16:43:10.921Z,57.40
2017-11-20T16:45:38.989Z,59.00
2017-11-20T16:48:07.064Z,57.90
2017-11-20T16:50:35.132Z,58.30
2017-11-20T16:53:03.195Z,59.00
2017-11-20T16:55:31.265Z,58.60
2017-11-20T16:58:17.517Z,59.40
2017-11-20T17:00:49.152Z,60.10
2017-11-20T17:03:33.052Z,60.00
2017-11-20T17:06:01.129Z,61.30
2017-11-20T17:08:29.445Z,59.70
2017-11-20T17:10:57.515Z,59.50
2017-11-20T17:13:25.644Z,61.40
2017-11-20T17:15:53.699Z,60.00
2017-11-20T17:18:21.791Z,59.50
2017-11-20T17:20:49.974Z,62.10
2017-11-20T17:23:18.045Z,60.90
2017-11-20T17:25:46.117Z,62.10
2017-11-20T17:28:14.584Z,60.80
2017-11-20T17:30:42.666Z,60.00
2017-11-20T17:33:10.742Z,61.20
2017-11-20T17:35:38.915Z,60.60
2017-11-20T17:38:06.990Z,61.50
2017-11-20T17:40:35.054Z,62.10
2017-11-20T17:43:03.126Z,62.00
2017-11-20T17:45:31.213Z,60.80
2017-11-20T17:47:59.288Z,61.40
2017-11-20T17:50:27.364Z,62.10
2017-11-20T17:52:55.436Z,61.50
2017-11-20T17:55:23.524Z,61.60
2017-11-20T17:57:51.587Z,61.80
2017-11-20T18:00:19.656Z,62.10
2017-11-20T18:02:47.716Z,62.00
2017-11-20T18:05:15.809Z,62.00
2017-11-20T18:07:43.884Z,62.70
2017-11-20T18:10:11.961Z,63.10
2017-11-20T18:12:40.037Z,62.60
2017-11-20T18:15:08.118Z,61.90
2017-11-20T18:17:36.176Z,69.10
2017-11-20T18:20:04.262Z,64.00
2017-11-20T18:22:32.319Z,64.70
2017-11-20T18:25:00.387Z,67.90
2017-11-20T18:27:28.460Z,66.00
2017-11-20T18:29:56.540Z,63.90
2017-11-20T18:32:24.603Z,63.90
2017-11-20T18:34:52.691Z,61.10
2017-11-20T18:37:20.760Z,60.80
2017-11-20T18:39:48.824Z,62.70
2017-11-20T18:42:16.908Z,62.00
2017-11-20T18:44:44.972Z,64.20
2017-11-20T18:47:13.057Z,63.90
2017-11-20T18:49:41.124Z,62.00
2017-11-20T18:52:09.188Z,61.70
2017-11-20T18:54:37.271Z,62.10
2017-11-20T18:57:05.347Z,62.80
2017-11-20T18:59:34.219Z,63.30
2017-11-20T19:02:20.864Z,62.70
2017-11-20T19:08:16.172Z,60.70
2017-11-20T19:10:44.237Z,60.70
2017-11-20T19:13:12.304Z,61.00
2017-11-20T19:15:41.159Z,62.70
2017-11-20T19:18:09.983Z,61.90
2017-11-20T19:20:38.244Z,61.80
2017-11-20T19:23:06.316Z,62.90
2017-11-20T19:25:34.989Z,62.60
2017-11-20T19:28:03.078Z,62.90
2017-11-20T19:30:31.150Z,62.50
2017-11-20T19:32:59.219Z,61.90
2017-11-20T19:35:27.509Z,61.90
2017-11-20T19:37:55.592Z,62.60
2017-11-20T19:40:23.665Z,62.80
2017-11-20T19:42:51.749Z,62.90
2017-11-20T19:45:20.585Z,64.30
2017-11-20T19:47:48.708Z,63.90
2017-11-20T19:50:17.585Z,62.80
2017-11-20T19:52:45.640Z,62.80
2017-11-20T19:55:13.712Z,63.20
2017-11-20T19:57:41.788Z,64.60
2017-11-20T20:00:09.906Z,66.20
2017-11-20T20:02:38.736Z,64.70
2017-11-20T20:05:06.808Z,64.60
2017-11-20T20:07:34.867Z,66.20
2017-11-20T20:10:02.990Z,66.00
2017-11-20T20:12:31.085Z,66.20
2017-11-20T20:15:17.844Z,64.50
2017-11-20T20:17:45.916Z,64.40
2017-11-20T20:20:14.716Z,65.70
2017-11-20T20:22:56.507Z,64.30
2017-11-20T20:25:42.876Z,64.50
2017-11-20T20:28:25.571Z,66.10
2017-11-20T20:31:12.288Z,65.80
2017-11-20T20:33:53.207Z,67.00
2017-11-20T20:36:23.216Z,66.40
2017-11-20T20:38:52.080Z,64.00
2017-11-20T20:41:20.152Z,64.20
2017-11-20T20:43:48.464Z,65.40
2017-11-20T20:46:16.565Z,66.60
2017-11-20T20:48:44.662Z,66.90
2017-11-20T20:51:13.508Z,64.20
2017-11-20T20:53:41.590Z,64.10
2017-11-20T20:56:09.648Z,63.60
2017-11-20T20:58:37.892Z,65.40
2017-11-20T21:01:06.007Z,74.30
2017-11-20T21:03:34.080Z,65.50
2017-11-20T21:06:02.183Z,65.70
2017-11-20T21:08:31.106Z,67.80
2017-11-20T21:11:04.677Z,67.90
2017-11-20T21:13:32.744Z,68.10
2017-11-20T21:16:01.580Z,69.40
2017-11-20T21:18:29.660Z,69.40
2017-11-20T21:20:57.766Z,69.30
2017-11-20T21:23:26.604Z,69.50
2017-11-20T21:25:54.669Z,69.40
2017-11-20T21:28:22.952Z,69.10
2017-11-20T21:30:51.028Z,69.80
2017-11-20T21:33:19.108Z,69.10
2017-11-20T21:35:47.183Z,70.40
2017-11-20T21:38:15.253Z,70.50
2017-11-20T21:40:43.323Z,69.70
2017-11-20T21:43:11.397Z,69.90
2017-11-20T21:45:39.472Z,70.00
2017-11-20T21:48:07.545Z,69.60
2017-11-20T21:50:35.614Z,70.80
2017-11-20T21:53:03.685Z,70.60
2017-11-20T21:55:31.760Z,71.30
2017-11-20T21:57:59.830Z,72.40
2017-11-20T22:00:27.900Z,72.60
2017-11-20T22:02:55.991Z,72.80
2017-11-20T22:05:24.060Z,73.40
2017-11-20T22:07:52.129Z,72.80
2017-11-20T22:10:20.195Z,72.80
2017-11-20T22:13:06.057Z,73.00
2017-11-20T22:15:34.129Z,72.90
2017-11-20T22:18:02.204Z,73.50
2017-11-20T22:20:30.277Z,74.20
2017-11-20T22:22:58.344Z,74.30
2017-11-20T22:25:26.417Z,74.20
2017-11-20T22:27:54.487Z,74.80
2017-11-20T22:30:22.560Z,75.70
2017-11-20T22:32:50.632Z,75.20
2017-11-20T22:35:18.712Z,75.70
2017-11-20T22:37:46.785Z,76.00
2017-11-20T22:40:15.640Z,76.20
2017-11-20T22:42:44.468Z,76.20
2017-11-20T22:45:12.533Z,76.20
2017-11-20T22:47:40.600Z,76.40
2017-11-20T22:50:08.672Z,76.20
2017-11-20T22:52:36.748Z,76.80
2017-11-20T22:55:04.834Z,77.00
2017-11-20T22:57:32.912Z,76.20
2017-11-20T23:00:00.997Z,76.90
2017-11-20T23:02:29.082Z,76.80
2017-11-20T23:04:57.145Z,76.90
2017-11-20T23:07:25.217Z,77.00
2017-11-20T23:09:53.290Z,76.70
2017-11-20T23:12:21.366Z,76.90
2017-11-20T23:14:50.224Z,77.20
2017-11-20T23:17:18.310Z,77.20
2017-11-20T23:19:46.384Z,77.10
2017-11-20T23:22:14.453Z,77.00
2017-11-20T23:24:42.528Z,77.70
2017-11-20T23:27:10.600Z,76.90
2017-11-20T23:29:38.668Z,76.70
2017-11-20T23:32:06.784Z,77.10
2017-11-20T23:34:35.634Z,76.70
2017-11-20T23:37:03.725Z,76.70
2017-11-20T23:39:31.805Z,76.10
2017-11-20T23:41:59.877Z,74.90
2017-11-20T23:44:27.965Z,74.70
2017-11-20T23:46:56.797Z,74.10
2017-11-20T23:49:25.681Z,74.20
2017-11-20T23:51:53.756Z,74.20
2017-11-20T23:54:37.332Z,74.00
2017-11-20T23:57:05.411Z,74.00
2017-11-20T23:59:33.484Z,74.10
